sensor_id;sensor_type;location;lat;lon;timestamp;temperature;humidity
16846;DHT22;8539;53.188;8.696;2023-04-03T00:01:33;0.80;99.90
16846;DHT22;8539;53.188;8.696;2023-04-03T00:03:59;0.90;99.90
16846;DHT22;8539;53.188;8.696;2023-04-03T00:06:25;0.80;99.90
16846;DHT22;8539;53.188;8.696;2023-04-03T00:08:52;0.80;99.90
16846;DHT22;8539;53.188;8.696;2023-04-03T00:11:18;0.70;99.90
16846;DHT22;8539;53.188;8.696;2023-04-03T00:13:45;0.70;99.90
16846;DHT22;8539;53.188;8.696;2023-04-03T00:16:12;0.60;99.90
16846;DHT22;8539;53.188;8.696;2023-04-03T00:18:39;0.60;99.90
16846;DHT22;8539;53.188;8.696;2023-04-03T00:21:06;0.60;99.90
16846;DHT22;8539;53.188;8.696;2023-04-03T00:23:33;0.50;99.90
16846;DHT22;8539;53.188;8.696;2023-04-03T00:26:00;0.40;99.90
16846;DHT22;8539;53.188;8.696;2023-04-03T00:28:26;0.50;99.90
16846;DHT22;8539;53.188;8.696;2023-04-03T00:30:53;0.20;99.90
16846;DHT22;8539;53.188;8.696;2023-04-03T00:33:19;0.10;99.90
16846;DHT22;8539;53.188;8.696;2023-04-03T00:35:50;0.00;99.90
16846;DHT22;8539;53.188;8.696;2023-04-03T00:38:17;0.00;99.90
16846;DHT22;8539;53.188;8.696;2023-04-03T00:40:45;0.10;99.90
16846;DHT22;8539;53.188;8.696;2023-04-03T00:43:15;0.10;99.90
16846;DHT22;8539;53.188;8.696;2023-04-03T00:45:43;0.20;99.90
16846;DHT22;8539;53.188;8.696;2023-04-03T00:50:50;0.20;99.90
16846;DHT22;8539;53.188;8.696;2023-04-03T00:53:25;0.20;99.90
16846;DHT22;8539;53.188;8.696;2023-04-03T00:55:53;0.20;99.90
16846;DHT22;8539;53.188;8.696;2023-04-03T00:58:26;0.20;99.90
16846;DHT22;8539;53.188;8.696;2023-04-03T01:00:55;0.20;99.90
16846;DHT22;8539;53.188;8.696;2023-04-03T01:03:24;0.20;99.90
16846;DHT22;8539;53.188;8.696;2023-04-03T01:05:50;0.20;99.90
16846;DHT22;8539;53.188;8.696;2023-04-03T01:08:18;0.20;99.90
16846;DHT22;8539;53.188;8.696;2023-04-03T01:10:44;0.20;99.90
16846;DHT22;8539;53.188;8.696;2023-04-03T01:13:20;0.20;99.90
16846;DHT22;8539;53.188;8.696;2023-04-03T01:15:47;0.20;99.90
16846;DHT22;8539;53.188;8.696;2023-04-03T01:18:13;0.10;99.90
16846;DHT22;8539;53.188;8.696;2023-04-03T01:26:06;0.10;99.90
16846;DHT22;8539;53.188;8.696;2023-04-03T01:28:34;0.10;99.90
16846;DHT22;8539;53.188;8.696;2023-04-03T01:33:45;0.10;99.90
16846;DHT22;8539;53.188;8.696;2023-04-03T01:36:16;0.10;99.90
16846;DHT22;8539;53.188;8.696;2023-04-03T01:38:42;0.10;99.90
16846;DHT22;8539;53.188;8.696;2023-04-03T01:41:09;0.10;99.90
16846;DHT22;8539;53.188;8.696;2023-04-03T01:43:35;0.10;99.90
16846;DHT22;8539;53.188;8.696;2023-04-03T01:46:01;0.10;99.90
16846;DHT22;8539;53.188;8.696;2023-04-03T01:48:28;0.10;99.90
16846;DHT22;8539;53.188;8.696;2023-04-03T01:50:54;0.10;99.90
16846;DHT22;8539;53.188;8.696;2023-04-03T01:53:21;0.10;99.90
16846;DHT22;8539;53.188;8.696;2023-04-03T01:55:48;0.10;99.90
16846;DHT22;8539;53.188;8.696;2023-04-03T01:58:14;0.10;99.90
16846;DHT22;8539;53.188;8.696;2023-04-03T02:00:40;0.40;99.90
16846;DHT22;8539;53.188;8.696;2023-04-03T02:03:06;0.20;99.90
16846;DHT22;8539;53.188;8.696;2023-04-03T02:05:33;0.10;99.90
16846;DHT22;8539;53.188;8.696;2023-04-03T02:07:59;0.50;99.90
16846;DHT22;8539;53.188;8.696;2023-04-03T02:10:25;0.40;99.90
16846;DHT22;8539;53.188;8.696;2023-04-03T02:12:52;0.00;99.90
16846;DHT22;8539;53.188;8.696;2023-04-03T02:15:18;0.00;99.90
16846;DHT22;8539;53.188;8.696;2023-04-03T02:17:44;0.40;99.90
16846;DHT22;8539;53.188;8.696;2023-04-03T02:20:10;0.00;99.90
16846;DHT22;8539;53.188;8.696;2023-04-03T02:22:37;0.00;99.90
16846;DHT22;8539;53.188;8.696;2023-04-03T02:25:03;-0.10;99.90
16846;DHT22;8539;53.188;8.696;2023-04-03T02:27:30;-0.10;99.90
16846;DHT22;8539;53.188;8.696;2023-04-03T02:29:57;-0.10;99.90
16846;DHT22;8539;53.188;8.696;2023-04-03T02:32:23;-0.10;99.90
16846;DHT22;8539;53.188;8.696;2023-04-03T02:34:50;-0.10;99.90
16846;DHT22;8539;53.188;8.696;2023-04-03T02:37:16;-0.20;99.90
16846;DHT22;8539;53.188;8.696;2023-04-03T02:39:42;-0.20;99.90
16846;DHT22;8539;53.188;8.696;2023-04-03T02:42:08;-0.20;99.90
16846;DHT22;8539;53.188;8.696;2023-04-03T02:44:34;-0.30;99.90
16846;DHT22;8539;53.188;8.696;2023-04-03T02:47:01;-0.30;99.90
16846;DHT22;8539;53.188;8.696;2023-04-03T02:49:28;-0.10;99.90
16846;DHT22;8539;53.188;8.696;2023-04-03T02:51:54;-0.30;99.90
16846;DHT22;8539;53.188;8.696;2023-04-03T02:54:20;-0.40;99.90
16846;DHT22;8539;53.188;8.696;2023-04-03T02:56:47;-0.40;99.90
16846;DHT22;8539;53.188;8.696;2023-04-03T02:59:14;-0.40;99.90
16846;DHT22;8539;53.188;8.696;2023-04-03T03:01:40;-0.40;99.90
16846;DHT22;8539;53.188;8.696;2023-04-03T03:04:06;-0.40;99.90
16846;DHT22;8539;53.188;8.696;2023-04-03T03:06:33;-0.40;99.90
16846;DHT22;8539;53.188;8.696;2023-04-03T03:08:59;-0.40;99.90
16846;DHT22;8539;53.188;8.696;2023-04-03T03:11:25;-0.40;99.90
16846;DHT22;8539;53.188;8.696;2023-04-03T03:13:51;-0.50;99.90
16846;DHT22;8539;53.188;8.696;2023-04-03T03:16:17;-0.50;99.90
16846;DHT22;8539;53.188;8.696;2023-04-03T03:18:44;-0.50;99.90
16846;DHT22;8539;53.188;8.696;2023-04-03T03:21:10;-0.50;99.90
16846;DHT22;8539;53.188;8.696;2023-04-03T03:23:37;-0.50;99.90
16846;DHT22;8539;53.188;8.696;2023-04-03T03:26:07;-0.50;99.90
16846;DHT22;8539;53.188;8.696;2023-04-03T03:28:34;-0.30;99.90
16846;DHT22;8539;53.188;8.696;2023-04-03T03:31:00;-0.40;99.90
16846;DHT22;8539;53.188;8.696;2023-04-03T03:33:27;-0.40;99.90
16846;DHT22;8539;53.188;8.696;2023-04-03T03:35:56;-0.50;99.90
16846;DHT22;8539;53.188;8.696;2023-04-03T03:38:22;-0.50;99.90
16846;DHT22;8539;53.188;8.696;2023-04-03T03:40:49;-0.40;99.90
16846;DHT22;8539;53.188;8.696;2023-04-03T03:43:16;-0.40;99.90
16846;DHT22;8539;53.188;8.696;2023-04-03T03:45:42;-0.40;99.90
16846;DHT22;8539;53.188;8.696;2023-04-03T03:48:09;-0.50;99.90
16846;DHT22;8539;53.188;8.696;2023-04-03T03:50:35;-0.50;99.90
16846;DHT22;8539;53.188;8.696;2023-04-03T03:53:04;-0.50;99.90
16846;DHT22;8539;53.188;8.696;2023-04-03T03:55:30;-0.50;99.90
16846;DHT22;8539;53.188;8.696;2023-04-03T03:57:57;-0.50;99.90
16846;DHT22;8539;53.188;8.696;2023-04-03T04:00:23;-0.50;99.90
16846;DHT22;8539;53.188;8.696;2023-04-03T04:02:49;-0.50;99.90
16846;DHT22;8539;53.188;8.696;2023-04-03T04:05:15;-0.60;99.90
16846;DHT22;8539;53.188;8.696;2023-04-03T04:07:41;-0.50;99.90
16846;DHT22;8539;53.188;8.696;2023-04-03T04:10:08;-0.50;99.90
16846;DHT22;8539;53.188;8.696;2023-04-03T04:12:34;-0.60;99.90
16846;DHT22;8539;53.188;8.696;2023-04-03T04:15:02;-0.60;99.90
16846;DHT22;8539;53.188;8.696;2023-04-03T04:17:28;-0.50;99.90
16846;DHT22;8539;53.188;8.696;2023-04-03T04:19:54;-0.60;99.90
16846;DHT22;8539;53.188;8.696;2023-04-03T04:22:21;-0.70;99.90
16846;DHT22;8539;53.188;8.696;2023-04-03T04:24:47;-0.70;99.90
16846;DHT22;8539;53.188;8.696;2023-04-03T04:27:13;-0.80;99.90
16846;DHT22;8539;53.188;8.696;2023-04-03T04:29:40;-0.80;99.90
16846;DHT22;8539;53.188;8.696;2023-04-03T04:32:06;-0.80;99.90
16846;DHT22;8539;53.188;8.696;2023-04-03T04:34:32;-0.80;99.90
16846;DHT22;8539;53.188;8.696;2023-04-03T04:36:58;-0.80;99.90
16846;DHT22;8539;53.188;8.696;2023-04-03T04:39:24;-0.80;99.90
16846;DHT22;8539;53.188;8.696;2023-04-03T04:41:50;-0.80;99.90
16846;DHT22;8539;53.188;8.696;2023-04-03T04:44:16;-0.80;99.90
16846;DHT22;8539;53.188;8.696;2023-04-03T04:46:42;-0.80;99.90
16846;DHT22;8539;53.188;8.696;2023-04-03T04:49:08;-0.70;99.90
16846;DHT22;8539;53.188;8.696;2023-04-03T04:51:35;-0.70;99.90
16846;DHT22;8539;53.188;8.696;2023-04-03T04:54:01;-0.70;99.90
16846;DHT22;8539;53.188;8.696;2023-04-03T04:56:27;-0.70;99.90
16846;DHT22;8539;53.188;8.696;2023-04-03T04:58:53;-0.70;99.90
16846;DHT22;8539;53.188;8.696;2023-04-03T05:01:19;-0.70;99.90
16846;DHT22;8539;53.188;8.696;2023-04-03T05:03:45;-0.70;99.90
16846;DHT22;8539;53.188;8.696;2023-04-03T05:06:14;-0.70;99.90
16846;DHT22;8539;53.188;8.696;2023-04-03T05:08:40;-0.80;99.90
16846;DHT22;8539;53.188;8.696;2023-04-03T05:11:06;-0.70;99.90
16846;DHT22;8539;53.188;8.696;2023-04-03T05:13:32;-0.70;99.90
16846;DHT22;8539;53.188;8.696;2023-04-03T05:15:58;-0.70;99.90
16846;DHT22;8539;53.188;8.696;2023-04-03T05:18:25;-0.70;99.90
16846;DHT22;8539;53.188;8.696;2023-04-03T05:20:51;-0.70;99.90
16846;DHT22;8539;53.188;8.696;2023-04-03T05:23:17;-0.70;99.90
16846;DHT22;8539;53.188;8.696;2023-04-03T05:25:43;-0.70;99.90
16846;DHT22;8539;53.188;8.696;2023-04-03T05:28:11;-0.70;99.90
16846;DHT22;8539;53.188;8.696;2023-04-03T05:30:37;-0.60;99.90
16846;DHT22;8539;53.188;8.696;2023-04-03T05:33:03;-0.50;99.90
16846;DHT22;8539;53.188;8.696;2023-04-03T05:35:29;-0.60;99.90
16846;DHT22;8539;53.188;8.696;2023-04-03T05:37:55;-0.50;99.90
16846;DHT22;8539;53.188;8.696;2023-04-03T05:40:22;-0.40;99.90
16846;DHT22;8539;53.188;8.696;2023-04-03T05:42:48;-0.50;99.90
16846;DHT22;8539;53.188;8.696;2023-04-03T05:45:14;-0.40;99.90
16846;DHT22;8539;53.188;8.696;2023-04-03T05:47:40;-0.40;99.90
16846;DHT22;8539;53.188;8.696;2023-04-03T05:50:06;-0.30;99.90
16846;DHT22;8539;53.188;8.696;2023-04-03T05:52:37;-0.30;99.90
16846;DHT22;8539;53.188;8.696;2023-04-03T05:55:04;-0.20;99.90
16846;DHT22;8539;53.188;8.696;2023-04-03T05:57:30;-0.20;99.90
16846;DHT22;8539;53.188;8.696;2023-04-03T05:59:56;-0.10;99.90
16846;DHT22;8539;53.188;8.696;2023-04-03T06:02:24;-0.10;99.90
16846;DHT22;8539;53.188;8.696;2023-04-03T06:04:51;0.00;99.90
16846;DHT22;8539;53.188;8.696;2023-04-03T06:07:22;0.00;99.90
16846;DHT22;8539;53.188;8.696;2023-04-03T06:09:50;0.10;99.90
16846;DHT22;8539;53.188;8.696;2023-04-03T06:12:17;0.20;99.90
16846;DHT22;8539;53.188;8.696;2023-04-03T06:14:43;0.20;99.90
16846;DHT22;8539;53.188;8.696;2023-04-03T06:17:09;0.30;99.90
16846;DHT22;8539;53.188;8.696;2023-04-03T06:19:36;0.40;99.90
16846;DHT22;8539;53.188;8.696;2023-04-03T06:22:02;0.40;99.90
16846;DHT22;8539;53.188;8.696;2023-04-03T06:24:29;0.60;99.90
16846;DHT22;8539;53.188;8.696;2023-04-03T06:26:56;0.60;99.90
16846;DHT22;8539;53.188;8.696;2023-04-03T06:29:23;0.60;99.90
16846;DHT22;8539;53.188;8.696;2023-04-03T06:31:51;0.80;99.90
16846;DHT22;8539;53.188;8.696;2023-04-03T06:34:17;0.80;99.90
16846;DHT22;8539;53.188;8.696;2023-04-03T06:36:44;0.90;99.90
16846;DHT22;8539;53.188;8.696;2023-04-03T06:39:14;1.10;99.90
16846;DHT22;8539;53.188;8.696;2023-04-03T06:41:41;1.20;99.90
16846;DHT22;8539;53.188;8.696;2023-04-03T06:44:07;1.50;99.90
16846;DHT22;8539;53.188;8.696;2023-04-03T06:46:37;2.50;99.90
16846;DHT22;8539;53.188;8.696;2023-04-03T06:49:04;3.60;99.90
16846;DHT22;8539;53.188;8.696;2023-04-03T06:51:33;4.30;99.90
16846;DHT22;8539;53.188;8.696;2023-04-03T06:53:59;5.10;99.90
16846;DHT22;8539;53.188;8.696;2023-04-03T06:56:27;5.80;99.90
16846;DHT22;8539;53.188;8.696;2023-04-03T06:58:54;6.40;99.90
16846;DHT22;8539;53.188;8.696;2023-04-03T07:01:22;6.70;99.90
16846;DHT22;8539;53.188;8.696;2023-04-03T07:03:49;6.90;99.90
16846;DHT22;8539;53.188;8.696;2023-04-03T07:06:16;7.00;99.90
16846;DHT22;8539;53.188;8.696;2023-04-03T07:08:44;6.80;99.90
16846;DHT22;8539;53.188;8.696;2023-04-03T07:11:12;6.70;99.90
16846;DHT22;8539;53.188;8.696;2023-04-03T07:13:38;6.80;99.90
16846;DHT22;8539;53.188;8.696;2023-04-03T07:16:05;6.90;99.90
16846;DHT22;8539;53.188;8.696;2023-04-03T07:18:32;6.80;99.90
16846;DHT22;8539;53.188;8.696;2023-04-03T07:20:58;6.70;99.90
16846;DHT22;8539;53.188;8.696;2023-04-03T07:23:25;6.60;99.90
16846;DHT22;8539;53.188;8.696;2023-04-03T07:25:52;6.40;99.90
16846;DHT22;8539;53.188;8.696;2023-04-03T07:28:19;6.30;99.90
16846;DHT22;8539;53.188;8.696;2023-04-03T07:30:48;6.20;99.90
16846;DHT22;8539;53.188;8.696;2023-04-03T07:33:16;6.20;99.90
16846;DHT22;8539;53.188;8.696;2023-04-03T07:35:43;6.20;99.90
16846;DHT22;8539;53.188;8.696;2023-04-03T07:38:10;6.30;99.90
16846;DHT22;8539;53.188;8.696;2023-04-03T07:40:37;6.20;99.90
16846;DHT22;8539;53.188;8.696;2023-04-03T07:43:04;6.30;99.90
16846;DHT22;8539;53.188;8.696;2023-04-03T07:45:31;6.40;99.90
16846;DHT22;8539;53.188;8.696;2023-04-03T07:47:57;6.80;99.90
16846;DHT22;8539;53.188;8.696;2023-04-03T07:50:24;6.90;99.90
16846;DHT22;8539;53.188;8.696;2023-04-03T07:52:50;6.90;99.90
16846;DHT22;8539;53.188;8.696;2023-04-03T07:55:18;6.70;99.90
16846;DHT22;8539;53.188;8.696;2023-04-03T07:57:44;6.60;99.90
16846;DHT22;8539;53.188;8.696;2023-04-03T08:00:11;6.70;99.90
16846;DHT22;8539;53.188;8.696;2023-04-03T08:02:38;6.80;99.90
16846;DHT22;8539;53.188;8.696;2023-04-03T08:05:04;6.90;99.90
16846;DHT22;8539;53.188;8.696;2023-04-03T08:07:30;7.00;99.90
16846;DHT22;8539;53.188;8.696;2023-04-03T08:09:56;7.20;99.90
16846;DHT22;8539;53.188;8.696;2023-04-03T08:12:23;7.50;99.90
16846;DHT22;8539;53.188;8.696;2023-04-03T08:14:49;7.60;99.90
16846;DHT22;8539;53.188;8.696;2023-04-03T08:17:16;7.60;99.90
16846;DHT22;8539;53.188;8.696;2023-04-03T08:19:42;7.50;99.90
16846;DHT22;8539;53.188;8.696;2023-04-03T08:22:08;7.40;99.90
16846;DHT22;8539;53.188;8.696;2023-04-03T08:24:34;7.60;99.90
16846;DHT22;8539;53.188;8.696;2023-04-03T08:27:03;7.80;99.90
16846;DHT22;8539;53.188;8.696;2023-04-03T08:29:29;8.20;99.90
16846;DHT22;8539;53.188;8.696;2023-04-03T08:31:55;8.50;99.90
16846;DHT22;8539;53.188;8.696;2023-04-03T08:34:21;8.80;99.80
16846;DHT22;8539;53.188;8.696;2023-04-03T08:36:47;8.90;99.50
16846;DHT22;8539;53.188;8.696;2023-04-03T08:39:14;8.90;96.30
16846;DHT22;8539;53.188;8.696;2023-04-03T08:41:42;8.90;94.40
16846;DHT22;8539;53.188;8.696;2023-04-03T08:44:25;8.90;94.00
16846;DHT22;8539;53.188;8.696;2023-04-03T08:50:01;8.90;93.00
16846;DHT22;8539;53.188;8.696;2023-04-03T08:52:39;9.00;92.60
16846;DHT22;8539;53.188;8.696;2023-04-03T08:55:14;9.20;92.60
16846;DHT22;8539;53.188;8.696;2023-04-03T08:57:46;9.30;90.80
16846;DHT22;8539;53.188;8.696;2023-04-03T09:02:52;9.30;87.30
16846;DHT22;8539;53.188;8.696;2023-04-03T09:08:27;9.80;87.30
16846;DHT22;8539;53.188;8.696;2023-04-03T09:13:57;10.40;87.70
16846;DHT22;8539;53.188;8.696;2023-04-03T09:22:25;11.20;80.70
16846;DHT22;8539;53.188;8.696;2023-04-03T09:25:13;11.30;80.50
16846;DHT22;8539;53.188;8.696;2023-04-03T09:27:39;11.30;79.10
16846;DHT22;8539;53.188;8.696;2023-04-03T09:30:08;11.50;79.20
16846;DHT22;8539;53.188;8.696;2023-04-03T09:32:38;11.60;79.10
16846;DHT22;8539;53.188;8.696;2023-04-03T09:35:21;11.70;69.50
16846;DHT22;8539;53.188;8.696;2023-04-03T09:37:51;11.80;69.60
16846;DHT22;8539;53.188;8.696;2023-04-03T09:45:43;12.30;72.30
16846;DHT22;8539;53.188;8.696;2023-04-03T09:51:02;12.70;71.10
16846;DHT22;8539;53.188;8.696;2023-04-03T09:53:43;12.90;64.00
16846;DHT22;8539;53.188;8.696;2023-04-03T09:58:49;12.60;63.60
16846;DHT22;8539;53.188;8.696;2023-04-03T10:01:33;12.60;65.40
16846;DHT22;8539;53.188;8.696;2023-04-03T10:04:16;12.70;65.00
16846;DHT22;8539;53.188;8.696;2023-04-03T10:06:45;12.40;63.00
16846;DHT22;8539;53.188;8.696;2023-04-03T10:14:29;12.50;65.80
16846;DHT22;8539;53.188;8.696;2023-04-03T10:34:33;13.50;60.40
16846;DHT22;8539;53.188;8.696;2023-04-03T10:45:24;13.60;59.80
16846;DHT22;8539;53.188;8.696;2023-04-03T10:56:37;14.20;60.20
16846;DHT22;8539;53.188;8.696;2023-04-03T10:59:28;14.00;60.00
16846;DHT22;8539;53.188;8.696;2023-04-03T11:04:37;13.80;58.00
16846;DHT22;8539;53.188;8.696;2023-04-03T11:07:16;13.80;57.80
16846;DHT22;8539;53.188;8.696;2023-04-03T11:09:46;13.90;53.70
16846;DHT22;8539;53.188;8.696;2023-04-03T11:12:35;13.50;54.20
16846;DHT22;8539;53.188;8.696;2023-04-03T11:15:11;13.30;55.80
16846;DHT22;8539;53.188;8.696;2023-04-03T11:17:46;13.40;56.30
16846;DHT22;8539;53.188;8.696;2023-04-03T11:20:28;13.30;58.30
16846;DHT22;8539;53.188;8.696;2023-04-03T11:23:08;13.50;58.80
16846;DHT22;8539;53.188;8.696;2023-04-03T11:25:41;13.70;59.50
16846;DHT22;8539;53.188;8.696;2023-04-03T11:28:13;13.80;57.80
16846;DHT22;8539;53.188;8.696;2023-04-03T11:31:22;13.60;55.90
16846;DHT22;8539;53.188;8.696;2023-04-03T11:36:51;13.50;56.00
16846;DHT22;8539;53.188;8.696;2023-04-03T11:39:30;13.50;56.50
16846;DHT22;8539;53.188;8.696;2023-04-03T11:42:37;13.60;56.90
16846;DHT22;8539;53.188;8.696;2023-04-03T11:47:53;13.50;57.50
16846;DHT22;8539;53.188;8.696;2023-04-03T11:50:45;13.40;57.60
16846;DHT22;8539;53.188;8.696;2023-04-03T11:58:17;13.60;57.40
16846;DHT22;8539;53.188;8.696;2023-04-03T12:05:53;13.40;57.60
16846;DHT22;8539;53.188;8.696;2023-04-03T12:32:32;12.20;58.80
16846;DHT22;8539;53.188;8.696;2023-04-03T12:43:24;12.50;58.40
16846;DHT22;8539;53.188;8.696;2023-04-03T12:48:32;12.80;58.20
16846;DHT22;8539;53.188;8.696;2023-04-03T12:50:59;13.10;57.70
16846;DHT22;8539;53.188;8.696;2023-04-03T12:53:28;13.40;57.80
16846;DHT22;8539;53.188;8.696;2023-04-03T12:55:57;13.50;57.50
16846;DHT22;8539;53.188;8.696;2023-04-03T12:58:43;13.50;57.80
16846;DHT22;8539;53.188;8.696;2023-04-03T13:01:13;13.60;57.50
16846;DHT22;8539;53.188;8.696;2023-04-03T13:03:43;13.70;57.70
16846;DHT22;8539;53.188;8.696;2023-04-03T13:06:18;13.60;56.90
16846;DHT22;8539;53.188;8.696;2023-04-03T13:08:49;13.40;57.10
16846;DHT22;8539;53.188;8.696;2023-04-03T13:11:16;13.30;56.60
16846;DHT22;8539;53.188;8.696;2023-04-03T13:14:01;13.20;56.40
16846;DHT22;8539;53.188;8.696;2023-04-03T13:16:29;13.00;56.10
16846;DHT22;8539;53.188;8.696;2023-04-03T13:18:56;13.00;57.10
16846;DHT22;8539;53.188;8.696;2023-04-03T13:21:26;13.10;57.10
16846;DHT22;8539;53.188;8.696;2023-04-03T13:23:58;12.70;57.60
16846;DHT22;8539;53.188;8.696;2023-04-03T13:26:28;12.50;57.70
16846;DHT22;8539;53.188;8.696;2023-04-03T13:28:59;12.30;57.80
16846;DHT22;8539;53.188;8.696;2023-04-03T13:31:31;12.10;57.60
16846;DHT22;8539;53.188;8.696;2023-04-03T13:34:17;11.90;57.90
16846;DHT22;8539;53.188;8.696;2023-04-03T13:37:06;11.70;58.40
16846;DHT22;8539;53.188;8.696;2023-04-03T13:39:37;11.80;58.80
16846;DHT22;8539;53.188;8.696;2023-04-03T13:42:20;11.90;58.90
16846;DHT22;8539;53.188;8.696;2023-04-03T13:44:47;11.60;59.30
16846;DHT22;8539;53.188;8.696;2023-04-03T13:47:20;11.40;60.30
16846;DHT22;8539;53.188;8.696;2023-04-03T13:50:13;11.60;60.70
16846;DHT22;8539;53.188;8.696;2023-04-03T13:52:53;11.70;60.90
16846;DHT22;8539;53.188;8.696;2023-04-03T13:55:23;11.70;61.30
16846;DHT22;8539;53.188;8.696;2023-04-03T14:00:35;11.40;61.10
16846;DHT22;8539;53.188;8.696;2023-04-03T14:03:01;11.50;61.60
16846;DHT22;8539;53.188;8.696;2023-04-03T14:05:30;11.90;62.00
16846;DHT22;8539;53.188;8.696;2023-04-03T14:07:56;12.30;62.50
16846;DHT22;8539;53.188;8.696;2023-04-03T14:10:22;12.70;62.60
16846;DHT22;8539;53.188;8.696;2023-04-03T14:12:49;12.80;62.20
16846;DHT22;8539;53.188;8.696;2023-04-03T14:15:23;12.70;62.10
16846;DHT22;8539;53.188;8.696;2023-04-03T14:17:51;12.50;60.40
16846;DHT22;8539;53.188;8.696;2023-04-03T14:20:19;12.20;60.50
16846;DHT22;8539;53.188;8.696;2023-04-03T14:22:49;11.90;60.40
16846;DHT22;8539;53.188;8.696;2023-04-03T14:25:18;11.70;60.50
16846;DHT22;8539;53.188;8.696;2023-04-03T14:27:49;11.70;60.80
16846;DHT22;8539;53.188;8.696;2023-04-03T14:30:26;11.70;57.50
16846;DHT22;8539;53.188;8.696;2023-04-03T14:32:53;11.80;57.80
16846;DHT22;8539;53.188;8.696;2023-04-03T14:35:19;11.70;57.40
16846;DHT22;8539;53.188;8.696;2023-04-03T14:37:46;11.50;57.70
16846;DHT22;8539;53.188;8.696;2023-04-03T14:40:17;11.60;58.20
16846;DHT22;8539;53.188;8.696;2023-04-03T14:42:44;11.70;58.80
16846;DHT22;8539;53.188;8.696;2023-04-03T14:45:12;11.80;59.60
16846;DHT22;8539;53.188;8.696;2023-04-03T14:47:51;11.70;60.60
16846;DHT22;8539;53.188;8.696;2023-04-03T14:50:21;11.40;61.40
16846;DHT22;8539;53.188;8.696;2023-04-03T14:52:48;11.00;61.60
16846;DHT22;8539;53.188;8.696;2023-04-03T14:55:16;10.70;63.70
16846;DHT22;8539;53.188;8.696;2023-04-03T14:57:43;10.70;63.70
16846;DHT22;8539;53.188;8.696;2023-04-03T15:00:18;10.60;64.20
16846;DHT22;8539;53.188;8.696;2023-04-03T15:02:45;10.60;64.50
16846;DHT22;8539;53.188;8.696;2023-04-03T15:05:12;10.70;64.70
16846;DHT22;8539;53.188;8.696;2023-04-03T15:07:43;10.90;64.30
16846;DHT22;8539;53.188;8.696;2023-04-03T15:10:23;11.10;64.30
16846;DHT22;8539;53.188;8.696;2023-04-03T15:12:50;11.20;64.20
16846;DHT22;8539;53.188;8.696;2023-04-03T15:15:18;11.30;63.80
16846;DHT22;8539;53.188;8.696;2023-04-03T15:17:48;11.40;63.50
16846;DHT22;8539;53.188;8.696;2023-04-03T15:20:19;11.50;63.30
16846;DHT22;8539;53.188;8.696;2023-04-03T15:22:46;11.50;63.10
16846;DHT22;8539;53.188;8.696;2023-04-03T15:25:12;11.40;62.90
16846;DHT22;8539;53.188;8.696;2023-04-03T15:27:39;11.40;62.80
16846;DHT22;8539;53.188;8.696;2023-04-03T15:30:11;11.30;63.00
16846;DHT22;8539;53.188;8.696;2023-04-03T15:32:38;10.90;63.10
16846;DHT22;8539;53.188;8.696;2023-04-03T15:35:05;10.70;64.10
16846;DHT22;8539;53.188;8.696;2023-04-03T15:37:31;10.50;64.00
16846;DHT22;8539;53.188;8.696;2023-04-03T15:39:58;10.40;64.50
16846;DHT22;8539;53.188;8.696;2023-04-03T15:42:24;10.30;64.80
16846;DHT22;8539;53.188;8.696;2023-04-03T15:44:50;10.30;65.10
16846;DHT22;8539;53.188;8.696;2023-04-03T15:47:16;10.30;65.40
16846;DHT22;8539;53.188;8.696;2023-04-03T15:49:43;10.30;65.40
16846;DHT22;8539;53.188;8.696;2023-04-03T15:52:11;10.40;65.80
16846;DHT22;8539;53.188;8.696;2023-04-03T15:54:37;10.50;65.80
16846;DHT22;8539;53.188;8.696;2023-04-03T15:57:04;10.60;65.60
16846;DHT22;8539;53.188;8.696;2023-04-03T15:59:30;10.50;64.60
16846;DHT22;8539;53.188;8.696;2023-04-03T16:01:58;10.40;63.60
16846;DHT22;8539;53.188;8.696;2023-04-03T16:04:25;10.30;63.30
16846;DHT22;8539;53.188;8.696;2023-04-03T16:06:52;10.20;63.40
16846;DHT22;8539;53.188;8.696;2023-04-03T16:09:19;10.10;63.30
16846;DHT22;8539;53.188;8.696;2023-04-03T16:11:45;10.20;63.50
16846;DHT22;8539;53.188;8.696;2023-04-03T16:14:11;9.90;63.70
16846;DHT22;8539;53.188;8.696;2023-04-03T16:16:38;9.70;64.70
16846;DHT22;8539;53.188;8.696;2023-04-03T16:19:05;9.50;64.50
16846;DHT22;8539;53.188;8.696;2023-04-03T16:21:32;9.40;64.70
16846;DHT22;8539;53.188;8.696;2023-04-03T16:23:59;9.40;65.00
16846;DHT22;8539;53.188;8.696;2023-04-03T16:26:26;9.50;65.20
16846;DHT22;8539;53.188;8.696;2023-04-03T16:28:53;9.50;65.20
16846;DHT22;8539;53.188;8.696;2023-04-03T16:31:20;9.50;64.90
16846;DHT22;8539;53.188;8.696;2023-04-03T16:33:46;9.40;65.00
16846;DHT22;8539;53.188;8.696;2023-04-03T16:36:12;9.30;64.90
16846;DHT22;8539;53.188;8.696;2023-04-03T16:38:38;9.30;64.90
16846;DHT22;8539;53.188;8.696;2023-04-03T16:41:05;9.30;64.90
16846;DHT22;8539;53.188;8.696;2023-04-03T16:43:32;9.30;65.10
16846;DHT22;8539;53.188;8.696;2023-04-03T16:45:59;9.30;65.50
16846;DHT22;8539;53.188;8.696;2023-04-03T16:48:28;9.30;66.00
16846;DHT22;8539;53.188;8.696;2023-04-03T16:50:55;9.20;66.40
16846;DHT22;8539;53.188;8.696;2023-04-03T16:53:22;9.10;66.70
16846;DHT22;8539;53.188;8.696;2023-04-03T16:55:49;9.00;67.20
16846;DHT22;8539;53.188;8.696;2023-04-03T16:58:16;8.90;68.30
16846;DHT22;8539;53.188;8.696;2023-04-03T17:00:42;8.80;68.60
16846;DHT22;8539;53.188;8.696;2023-04-03T17:03:09;8.80;69.20
16846;DHT22;8539;53.188;8.696;2023-04-03T17:05:35;8.70;69.70
16846;DHT22;8539;53.188;8.696;2023-04-03T17:08:02;8.70;70.20
16846;DHT22;8539;53.188;8.696;2023-04-03T17:10:28;8.60;70.70
16846;DHT22;8539;53.188;8.696;2023-04-03T17:12:54;8.60;70.90
16846;DHT22;8539;53.188;8.696;2023-04-03T17:15:21;8.50;71.00
16846;DHT22;8539;53.188;8.696;2023-04-03T17:17:48;8.50;71.10
16846;DHT22;8539;53.188;8.696;2023-04-03T17:20:15;8.40;71.10
16846;DHT22;8539;53.188;8.696;2023-04-03T17:22:41;8.30;71.10
16846;DHT22;8539;53.188;8.696;2023-04-03T17:25:08;8.20;71.20
16846;DHT22;8539;53.188;8.696;2023-04-03T17:27:34;8.20;71.40
16846;DHT22;8539;53.188;8.696;2023-04-03T17:30:00;8.10;71.70
16846;DHT22;8539;53.188;8.696;2023-04-03T17:32:26;8.00;71.90
16846;DHT22;8539;53.188;8.696;2023-04-03T17:34:52;7.90;72.20
16846;DHT22;8539;53.188;8.696;2023-04-03T17:37:19;7.80;72.50
16846;DHT22;8539;53.188;8.696;2023-04-03T17:39:45;7.70;72.80
16846;DHT22;8539;53.188;8.696;2023-04-03T17:42:12;7.60;73.30
16846;DHT22;8539;53.188;8.696;2023-04-03T17:44:38;7.50;73.80
16846;DHT22;8539;53.188;8.696;2023-04-03T17:47:04;7.40;74.30
16846;DHT22;8539;53.188;8.696;2023-04-03T17:49:30;7.40;74.70
16846;DHT22;8539;53.188;8.696;2023-04-03T17:51:58;7.30;75.10
16846;DHT22;8539;53.188;8.696;2023-04-03T17:54:24;7.20;75.80
16846;DHT22;8539;53.188;8.696;2023-04-03T17:56:50;7.10;76.20
16846;DHT22;8539;53.188;8.696;2023-04-03T17:59:18;6.90;76.70
16846;DHT22;8539;53.188;8.696;2023-04-03T18:01:45;6.80;77.10
16846;DHT22;8539;53.188;8.696;2023-04-03T18:04:12;6.70;77.60
16846;DHT22;8539;53.188;8.696;2023-04-03T18:06:47;6.60;78.10
16846;DHT22;8539;53.188;8.696;2023-04-03T18:09:20;6.50;78.50
16846;DHT22;8539;53.188;8.696;2023-04-03T18:11:48;6.40;79.00
16846;DHT22;8539;53.188;8.696;2023-04-03T18:14:19;6.30;79.50
16846;DHT22;8539;53.188;8.696;2023-04-03T18:16:46;6.20;80.00